Latest Weather Observations for Adelaide

IDS60901

Issued at 2:05 pm CST Sunday 20 April 2014 (issued every 10 minutes, with the page automatically refreshed every 10 minutes)

About weather observations | Map of Adelaide area stations | Latest observations for Adelaide area | Other Formats
Station Details ID: 023090 Name: KENT TOWN Lat: -34.92 Lon: 138.62 Height: 48.0 m
Data from the previous 72 hours. | See also: Recent months at Adelaide
Date/Time
CST
Tmp

°C
App
Tmp
°C
Dew
Point
°C
Rel
Hum
%
Delta-T

°C
Wind Press
QNH
hPa
Press
MSL
hPa
Rain
since
9 am
mm
Dir
 
Spd
km/h
Gust
km/h
Spd
kts
Gust
kts
20/02:00pm 21.6 18.7 6.4 37 7.7 W 11 17 6 9 1017.5 - 0.0
20/01:30pm 21.9 19.4 6.6 37 7.8 W 9 17 5 9 1017.6 - 0.0
20/01:00pm 21.2 18.3 6.6 38 7.4 SW 11 17 6 9 1017.8 - 0.0
20/12:30pm 21.9 18.8 7.4 39 7.5 WSW 13 17 7 9 1018.2 - 0.0
20/12:00pm 20.7 18.3 6.9 40 7.0 SW 9 15 5 8 1018.5 1018.5 0.0
20/11:30am 20.1 17.9 6.3 40 6.9 W 7 13 4 7 1018.8 - 0.0
20/11:00am 19.4 17.2 6.4 42 6.5 NNW 7 17 4 9 1019.0 - 0.0
20/10:30am 19.7 18.3 7.3 44 6.3 S 4 7 2 4 1019.0 - 0.0
20/10:00am 18.7 16.8 7.5 48 5.7 N 7 9 4 5 1019.4 - 0.0
20/09:30am 18.0 16.5 7.0 48 5.5 N 4 9 2 5 1019.6 - 0.0
20/09:00am 16.6 14.6 6.1 50 5.1 NNE 6 9 3 5 1019.7 1019.7 0.0
20/08:30am 14.6 13.1 6.8 59 3.8 NE 4 9 2 5 1019.3 - 0.0
20/08:00am 11.9 11.1 6.6 70 2.5 CALM 0 0 0 0 1019.2 - 0.0
20/07:30am 10.0 7.9 6.6 79 1.6 ENE 7 11 4 6 1018.7 - 0.0
20/07:00am 9.2 8.4 6.6 84 1.2 CALM 0 0 0 0 1018.7 - 0.0
20/06:30am 9.6 8.9 6.8 83 1.3 CALM 0 0 0 0 1018.4 - 0.0
20/06:00am 10.0 8.1 6.8 80 1.5 NE 6 9 3 5 1018.0 1018.0 0.0
20/05:30am 10.1 8.4 7.4 83 1.3 NE 6 7 3 4 1017.9 - 0.0
20/05:00am 10.6 9.3 7.7 82 1.4 ENE 4 7 2 4 1017.8 - 0.0
20/04:30am 11.2 10.7 7.9 80 1.6 CALM 0 0 0 0 1017.7 - 0.0
20/04:00am 12.2 11.7 7.7 74 2.2 CALM 0 6 0 3 1017.6 - 0.0
20/03:30am 13.0 12.4 7.5 69 2.7 CALM 0 0 0 0 1017.7 - 0.0
20/03:00am 13.0 12.4 7.5 69 2.7 CALM 0 7 0 4 1017.7 1017.7 0.0
20/02:30am 13.2 11.7 7.0 66 3.0 NNE 4 7 2 4 1017.5 - 0.0
20/02:00am 12.9 11.6 7.6 70 2.6 ENE 4 11 2 6 1017.7 - 0.0
20/01:30am 12.7 12.1 7.3 69 2.6 CALM 0 0 0 0 1017.9 - 0.0
20/01:00am 12.6 10.9 7.5 71 2.5 NE 6 7 3 4 1018.0 - 0.0
20/12:30am 12.4 11.8 7.5 72 2.4 CALM 0 6 0 3 1018.1 - 0.0
20/12:00am 12.4 11.4 7.2 70 2.5 NE 2 11 1 6 1018.1 1018.1 0.0
 
Date/Time
CST
Tmp

°C
App
Tmp
°C
Dew
Point
°C
Rel
Hum
%
Delta-T

°C
Wind Press
QNH
hPa
Press
MSL
hPa
Rain
since
9 am
mm
Dir
 
Spd
km/h
Gust
km/h
Spd
kts
Gust
kts
19/11:30pm 11.9 10.9 7.3 73 2.2 NNE 2 6 1 3 1018.1 - 0.0
19/11:00pm 11.5 10.1 7.3 75 2.0 ESE 4 7 2 4 1018.2 - 0.0
19/10:30pm 11.9 11.0 7.6 75 2.1 E 2 7 1 4 1018.6 - 0.0
19/10:00pm 11.8 11.3 7.9 77 1.9 CALM 0 0 0 0 1018.9 - 0.0
19/09:30pm 12.2 11.7 7.7 74 2.2 CALM 0 0 0 0 1018.9 - 0.0
19/09:00pm 12.7 10.9 7.3 69 2.6 E 6 7 3 4 1018.9 1018.9 0.0
19/08:30pm 12.7 11.9 8.0 73 2.3 SSE 2 7 1 4 1018.8 - 0.0
19/08:00pm 12.9 12.6 8.5 74 2.2 CALM 0 0 0 0 1018.9 - 0.0
19/07:30pm 13.7 12.1 8.1 69 2.8 S 6 7 3 4 1019.0 - 0.0
19/07:00pm 14.2 12.3 7.7 65 3.2 SE 7 11 4 6 1018.9 - 0.0
19/06:30pm 14.7 12.5 7.9 63 3.4 SSE 9 13 5 7 1018.9 - 0.0
19/06:00pm 15.3 13.0 7.4 59 3.9 S 9 11 5 6 1019.0 1019.0 0.0
19/05:30pm 16.1 13.3 7.0 54 4.5 SW 11 17 6 9 1018.9 - 0.0
19/05:00pm 16.9 13.7 7.0 52 4.9 SW 13 20 7 11 1018.8 - 0.0
19/04:30pm 17.2 13.7 7.2 51 5.0 SW 15 24 8 13 1018.8 - 0.0
19/04:00pm 17.7 14.0 6.3 47 5.6 WSW 15 24 8 13 1019.0 - 0.0
19/03:30pm 18.5 15.1 6.1 44 6.1 SW 13 20 7 11 1019.0 - 0.0
19/03:00pm 19.0 14.9 6.0 42 6.4 WSW 17 22 9 12 1019.1 1019.1 0.0
19/02:30pm 18.8 15.3 5.5 41 6.5 WSW 13 22 7 12 1019.2 - 0.0
19/02:00pm 18.6 15.6 6.0 43 6.2 WSW 11 17 6 9 1019.3 - 0.0
19/01:30pm 17.8 14.4 5.7 45 5.9 SSW 13 20 7 11 1019.8 - 0.0
19/01:00pm 18.6 15.3 4.3 38 6.8 WSW 11 17 6 9 1020.2 - 0.0
19/12:30pm 18.6 15.3 4.3 38 6.8 SW 11 19 6 10 1020.9 - 0.0
19/12:00pm 18.1 15.4 3.8 38 6.7 NNE 7 13 4 7 1021.4 1021.4 0.0
19/11:30am 18.7 15.2 3.5 36 7.1 N 11 19 6 10 1021.7 - 0.0
19/11:00am 17.5 13.6 3.5 39 6.5 NNE 13 20 7 11 1022.1 - 0.0
19/10:30am 17.0 13.6 3.9 41 6.1 NE 11 19 6 10 1022.5 - 0.0
19/10:00am 16.1 11.5 3.7 43 5.7 NE 17 22 9 12 1022.9 - 0.0
19/09:30am 15.0 12.4 6.0 55 4.3 NE 9 15 5 8 1023.4 - 0.0
19/09:00am 13.8 11.9 7.5 66 3.1 N 7 13 4 7 1023.5 1023.5 0.0
19/08:30am 12.6 10.7 7.4 70 2.5 NNE 7 11 4 6 1023.4 - 0.0
19/08:00am 11.7 9.4 7.3 74 2.1 N 9 13 5 7 1023.2 - 0.0
19/07:30am 10.9 8.9 7.3 78 1.7 N 7 9 4 5 1023.1 - 0.0
19/07:00am 10.9 9.2 7.6 80 1.6 N 6 11 3 6 1022.8 - 0.0
19/06:30am 11.2 10.3 7.7 79 1.7 NE 2 6 1 3 1022.8 - 0.0
19/06:00am 10.6 9.3 7.5 81 1.5 ESE 4 7 2 4 1022.7 1022.7 0.0
19/05:30am 10.0 8.5 7.0 81 1.4 NNE 4 9 2 5 1022.5 - 0.0
19/05:00am 9.3 8.3 7.2 87 1.0 NNE 2 7 1 4 1022.4 - 0.0
19/04:30am 9.0 7.9 7.1 88 0.9 ENE 2 6 1 3 1022.3 - 0.0
19/04:00am 9.3 8.7 7.2 87 1.0 CALM 0 0 0 0 1022.3 - 0.0
19/03:30am 9.8 8.3 7.0 83 1.3 NNE 4 7 2 4 1022.4 - 0.0
19/03:00am 10.1 9.4 7.1 81 1.4 CALM 0 0 0 0 1022.3 1022.3 0.0
19/02:30am 10.4 9.8 7.2 80 1.5 CALM 0 0 0 0 1022.6 - 0.0
19/02:00am 10.8 10.2 7.5 80 1.6 CALM 0 0 0 0 1022.8 - 0.0
19/01:30am 11.6 11.1 7.7 77 1.9 CALM 0 6 0 3 1023.1 - 0.0
19/01:00am 11.5 10.5 7.3 75 2.0 NE 2 7 1 4 1023.3 - 0.0
19/12:30am 10.7 10.0 7.1 78 1.7 CALM 0 0 0 0 1023.3 - 0.0
19/12:00am 10.4 9.7 7.0 79 1.6 CALM 0 0 0 0 1023.3 1023.3 0.0
 
Date/Time
CST
Tmp

°C
App
Tmp
°C
Dew
Point
°C
Rel
Hum
%
Delta-T

°C
Wind Press
QNH
hPa
Press
MSL
hPa
Rain
since
9 am
mm
Dir
 
Spd
km/h
Gust
km/h
Spd
kts
Gust
kts
18/11:30pm 10.1 9.4 6.9 80 1.5 CALM 0 0 0 0 1023.5 - 0.0
18/11:00pm 10.4 9.4 7.5 82 1.4 E 2 6 1 3 1023.5 - 0.0
18/10:30pm 10.8 10.1 7.0 77 1.8 CALM 0 0 0 0 1023.7 - 0.0
18/10:00pm 11.0 10.3 7.0 76 1.9 CALM 0 0 0 0 1023.8 - 0.0
18/09:30pm 11.5 9.6 6.6 72 2.3 ESE 6 7 3 4 1023.9 - 0.0
18/09:00pm 11.6 10.8 6.5 71 2.4 CALM 0 6 0 3 1023.8 1023.8 0.0
18/08:30pm 12.2 10.1 6.0 66 2.9 SE 6 9 3 5 1023.8 - 0.0
18/08:00pm 12.8 10.5 5.8 62 3.3 SE 7 11 4 6 1023.6 - 0.0
18/07:30pm 13.5 11.5 6.1 61 3.5 SE 6 9 3 5 1023.4 - 0.0
18/07:00pm 14.2 11.9 5.7 56 4.0 ESE 7 11 4 6 1023.2 - 0.0
18/06:30pm 15.1 12.0 5.4 52 4.6 SSE 11 17 6 9 1022.9 - 0.0
18/06:00pm 15.8 12.3 5.3 49 5.0 SSE 13 19 7 10 1022.9 1022.9 0.0
18/05:30pm 16.6 12.8 5.8 49 5.2 SSE 15 22 8 12 1022.6 - 0.0
18/05:00pm 17.6 14.2 5.9 46 5.7 S 13 20 7 11 1022.2 - 0.0
18/04:30pm 18.0 14.2 5.7 44 6.0 S 15 26 8 14 1022.0 - 0.0
18/04:00pm 18.9 14.6 5.3 41 6.6 S 17 26 9 14 1021.7 - 0.0
18/03:30pm 20.0 15.6 6.7 42 6.7 WSW 19 24 10 13 1021.5 - 0.0
18/03:00pm 20.4 15.8 3.9 33 7.9 S 17 24 9 13 1021.4 1021.4 0.0
18/02:30pm 20.2 15.7 6.2 40 7.0 SSW 19 32 10 17 1021.3 - 0.0
18/02:00pm 20.1 15.5 6.3 40 6.9 WSW 20 33 11 18 1021.3 - 0.0
18/01:30pm 19.7 14.3 6.2 41 6.7 WSW 24 35 13 19 1021.1 - 0.0
18/01:00pm 20.1 15.7 7.6 44 6.4 WSW 20 33 11 18 1021.3 - 0.0
18/12:30pm 19.9 15.4 8.6 48 5.9 WSW 22 35 12 19 1021.5 - 0.0
18/12:00pm 20.3 16.4 9.6 50 5.7 SW 20 32 11 17 1021.8 1021.8 0.0
18/11:30am 19.6 16.2 9.1 50 5.5 SW 17 26 9 14 1021.9 - 0.0
18/11:00am 19.1 16.1 10.6 58 4.6 SW 17 26 9 14 1021.9 - 0.0
18/10:30am 18.6 15.6 10.8 60 4.2 S 17 26 9 14 1022.0 - 0.0
18/10:00am 18.3 15.3 11.9 66 3.5 S 19 28 10 15 1022.1 - 0.0
18/09:30am 17.6 15.5 13.7 78 2.2 SSW 17 24 9 13 1021.9 - 0.0
18/09:00am 16.7 16.1 14.6 87 1.2 SSW 11 20 6 11 1021.8 1021.8 1.6
18/08:30am 15.8 16.3 14.9 94 0.5 S 6 9 3 5 1021.4 - 1.6
18/08:00am 15.4 15.5 14.5 94 0.5 S 7 13 4 7 1020.9 - 1.6
18/07:30am 15.8 13.5 14.6 93 0.7 SSW 20 39 11 21 1020.8 - 1.4
18/07:00am 17.8 17.4 14.1 79 2.1 W 9 13 5 7 1020.0 - 0.0
18/06:30am 17.7 15.8 14.2 80 2.0 W 17 20 9 11 1019.9 - 0.0
18/06:00am 17.6 15.7 14.1 80 2.0 W 17 22 9 12 1019.9 1019.9 0.0
18/05:30am 17.4 15.8 13.9 80 2.0 W 15 22 8 12 1019.9 - 0.0
18/05:00am 17.2 16.0 13.9 81 1.9 W 13 20 7 11 1019.8 - 0.0
18/04:30am 16.9 16.0 13.7 81 1.8 W 11 20 6 11 1019.6 - 0.0
18/04:00am 17.0 14.9 13.6 80 1.9 W 17 20 9 11 1019.4 - 0.0
18/03:30am 17.4 15.3 13.7 79 2.1 W 17 24 9 13 1019.4 - 0.0
18/03:00am 17.4 15.3 13.5 78 2.2 W 17 28 9 15 1019.4 1019.4 0.0
18/02:30am 17.5 15.8 13.6 78 2.2 W 15 26 8 14 1019.4 - 0.0
18/02:00am 17.8 15.4 13.8 77 2.3 W 19 26 10 14 1019.4 - 0.0
18/01:30am 18.0 16.3 14.7 81 1.9 W 17 24 9 13 1019.5 - 0.0
18/01:00am 16.8 16.6 13.6 81 1.8 WNW 7 11 4 6 1019.3 - 0.0
18/12:30am 16.7 16.5 13.5 81 1.8 WNW 7 11 4 6 1019.3 - 0.0
18/12:00am 16.8 16.5 13.2 79 2.0 WNW 7 13 4 7 1019.5 1019.5 0.0
 
Date/Time
CST
Tmp

°C
App
Tmp
°C
Dew
Point
°C
Rel
Hum
%
Delta-T

°C
Wind Press
QNH
hPa
Press
MSL
hPa
Rain
since
9 am
mm
Dir
 
Spd
km/h
Gust
km/h
Spd
kts
Gust
kts
17/11:30pm 17.1 16.6 12.8 76 2.4 WNW 7 11 4 6 1019.7 - 0.0
17/11:00pm 16.7 16.1 12.3 75 2.4 WNW 7 11 4 6 1020.0 - 0.0
17/10:30pm 15.7 16.4 12.2 80 1.9 CALM 0 0 0 0 1020.2 - 0.0
17/10:00pm 15.8 16.1 12.1 78 2.0 NE 2 7 1 4 1020.3 - 0.0
17/09:30pm 16.1 16.8 12.3 78 2.1 CALM 0 0 0 0 1020.2 - 0.0
17/09:00pm 16.6 17.2 12.0 74 2.5 CALM 0 0 0 0 1020.1 1020.1 0.0
17/08:30pm 17.0 17.7 12.3 74 2.6 CALM 0 0 0 0 1019.8 - 0.0
17/08:00pm 17.6 18.4 12.6 72 2.8 CALM 0 0 0 0 1019.5 - 0.0
17/07:30pm 18.1 19.1 13.3 73 2.7 CALM 0 0 0 0 1019.4 - 0.0
17/07:00pm 18.9 19.6 12.2 65 3.7 CALM 0 0 0 0 1019.4 - 0.0
17/06:30pm 19.7 20.2 11.7 60 4.4 CALM 0 0 0 0 1019.3 - 0.0
17/06:00pm 20.5 19.9 11.7 57 4.9 WNW 6 9 3 5 1019.4 1019.4 0.0
17/05:30pm 21.2 20.3 11.2 53 5.5 NW 7 9 4 5 1019.1 - 0.0
17/05:00pm 22.1 20.0 11.1 49 6.1 W 13 17 7 9 1019.2 - 0.0
17/04:30pm 23.0 20.4 10.7 45 6.8 WNW 15 19 8 10 1019.1 - 0.0
17/04:00pm 23.1 21.1 10.1 43 7.1 WNW 11 17 6 9 1019.1 - 0.0
17/03:30pm 23.5 21.5 10.2 43 7.3 NW 11 17 6 9 1019.3 - 0.0
17/03:00pm 23.6 21.2 9.9 42 7.5 W 13 17 7 9 1019.6 1019.6 0.0
17/02:30pm 23.1 21.2 9.1 41 7.5 NNW 9 17 5 9 1019.6 - 0.0

Latest Capital City Observations: Canberra | Sydney | Melbourne | Brisbane | Adelaide | Perth | Hobart | Darwin

Other Formats:

Comma delimited format used in spreadsheet applications
http://www.bom.gov.au/fwo/IDS60901/IDS60901.94675.axf

JavaScript Object Notation format (JSON) in row-major order
http://www.bom.gov.au/fwo/IDS60901/IDS60901.94675.json